Time;durP1;ratioP1;P1;durP2;ratioP2;P2;SDS_P1;SDS_P2;PMS_P1;PMS_P2;Temp;Humidity;BMP_temperature;BMP_pressure;BME280_temperature;BME280_humidity;BME280_pressure;Samples;Min_cycle;Max_cycle;Signal;HPM_P1;HPM_P2
2022/09/17 00:02:24;;;;;;;72.83;24.87;;;11.60;99.90;;;;;;5045445;28;20587;-83
2022/09/17 00:04:50;;;;;;;74.65;31.48;;;11.70;99.90;;;;;;5025735;28;20642;-83
2022/09/17 00:07:17;;;;;;;70.47;22.20;;;11.70;99.90;;;;;;5028016;28;20220;-83
2022/09/17 00:09:43;;;;;;;74.40;31.20;;;11.70;99.90;;;;;;5045179;28;20167;-83
2022/09/17 00:12:09;;;;;;;80.03;36.80;;;11.70;99.90;;;;;;5026263;28;20170;-83
2022/09/17 00:14:34;;;;;;;74.88;26.73;;;11.70;99.90;;;;;;5041611;28;20183;-83
2022/09/17 00:17:00;;;;;;;75.00;24.97;;;11.70;99.90;;;;;;5044201;28;20222;-83
2022/09/17 00:19:26;;;;;;;76.13;24.93;;;11.70;99.90;;;;;;5026987;28;20173;-83
2022/09/17 00:21:52;;;;;;;69.70;16.10;;;11.70;99.90;;;;;;5026828;28;20176;-83
2022/09/17 00:24:19;;;;;;;69.77;14.57;;;11.60;99.90;;;;;;5028103;28;20419;-83
2022/09/17 00:26:46;;;;;;;70.57;15.48;;;11.70;99.90;;;;;;5044544;28;20196;-83
2022/09/17 00:29:11;;;;;;;72.40;18.77;;;11.80;99.90;;;;;;5044797;28;20165;-83
2022/09/17 00:31:37;;;;;;;72.40;20.10;;;11.80;99.90;;;;;;5044304;28;20157;-83
2022/09/17 00:34:05;;;;;;;75.13;21.15;;;11.80;99.90;;;;;;5045498;28;20506;-83
2022/09/17 00:36:34;;;;;;;74.00;21.63;;;11.80;99.90;;;;;;5044749;28;20169;-83
2022/09/17 00:38:59;;;;;;;81.90;33.53;;;11.80;99.90;;;;;;5045263;28;20193;-83
2022/09/17 00:41:28;;;;;;;73.37;26.47;;;11.80;99.90;;;;;;5026336;28;20177;-84
2022/09/17 00:44:00;;;;;;;72.82;25.30;;;11.80;99.90;;;;;;5042629;28;20179;-83
2022/09/17 00:46:38;;;;;;;70.80;17.55;;;11.70;99.90;;;;;;5043859;28;20189;-83
2022/09/17 00:49:10;;;;;;;71.22;19.73;;;11.80;99.90;;;;;;5044454;28;20184;-82
2022/09/17 00:51:53;;;;;;;69.50;12.65;;;11.70;99.90;;;;;;5042554;28;20165;-83
2022/09/17 00:54:20;;;;;;;69.65;15.20;;;11.70;99.90;;;;;;5025740;28;20162;-83
2022/09/17 00:56:47;;;;;;;73.68;20.00;;;11.70;99.90;;;;;;5043878;28;20249;-83
2022/09/17 00:59:14;;;;;;;68.38;11.70;;;11.70;99.90;;;;;;5025496;28;20264;-83
2022/09/17 01:01:40;;;;;;;76.15;13.57;;;11.70;99.90;;;;;;5043373;28;20200;-83
2022/09/17 01:04:06;;;;;;;70.43;12.60;;;11.70;99.90;;;;;;5043988;28;20660;-83
2022/09/17 01:06:37;;;;;;;72.80;10.05;;;11.70;99.90;;;;;;5024300;28;20192;-83
2022/09/17 01:09:15;;;;;;;71.25;10.70;;;11.70;99.90;;;;;;5044040;28;20173;-82
2022/09/17 01:12:28;;;;;;;66.80;10.02;;;11.60;99.90;;;;;;5043928;28;20199;-83
2022/09/17 01:15:08;;;;;;;70.30;11.15;;;11.60;99.90;;;;;;4982522;28;20185;-83
2022/09/17 01:17:48;;;;;;;70.60;11.57;;;11.60;99.90;;;;;;5025256;28;20214;-84
2022/09/17 01:20:53;;;;;;;72.88;9.45;;;11.60;99.90;;;;;;5041962;28;20574;-83
2022/09/17 01:23:43;;;;;;;72.97;9.32;;;11.60;99.90;;;;;;5041410;28;20613;-83
2022/09/17 01:26:35;;;;;;;74.40;11.60;;;11.60;99.90;;;;;;5042228;28;20207;-83
2022/09/17 01:29:19;;;;;;;73.30;9.18;;;11.70;99.90;;;;;;5041811;28;20180;-83
2022/09/17 01:32:05;;;;;;;72.28;10.75;;;11.60;99.90;;;;;;5041398;28;20172;-83
2022/09/17 01:34:58;;;;;;;75.15;10.55;;;11.70;99.90;;;;;;5025016;28;20165;-83
2022/09/17 01:37:35;;;;;;;76.15;11.07;;;11.70;99.90;;;;;;5026067;28;20185;-83
2022/09/17 01:40:11;;;;;;;71.25;11.18;;;11.70;99.90;;;;;;5024710;28;20561;-83
2022/09/17 01:42:43;;;;;;;72.07;14.38;;;11.70;99.90;;;;;;5022723;28;20193;-83
2022/09/17 01:45:23;;;;;;;72.53;11.50;;;11.70;99.90;;;;;;5040962;28;20184;-83
2022/09/17 01:47:53;;;;;;;71.10;11.52;;;11.80;99.90;;;;;;5042724;28;20232;-83
2022/09/17 01:50:26;;;;;;;71.55;14.15;;;11.70;99.90;;;;;;5042364;28;20154;-83
2022/09/17 01:52:54;;;;;;;74.47;14.10;;;11.70;99.90;;;;;;5040274;28;20146;-83
2022/09/17 01:55:23;;;;;;;67.57;11.20;;;11.60;99.90;;;;;;5022753;28;20184;-83
2022/09/17 01:57:56;;;;;;;70.22;9.77;;;11.60;99.90;;;;;;5042501;28;20193;-83
2022/09/17 02:00:23;;;;;;;71.97;10.77;;;11.70;99.90;;;;;;5041191;28;20170;-83
2022/09/17 02:02:57;;;;;;;79.88;14.55;;;11.60;99.90;;;;;;5024919;28;20637;-83
2022/09/17 02:05:52;;;;;;;70.05;12.80;;;11.50;99.90;;;;;;5041575;28;20149;-82
2022/09/17 02:08:22;;;;;;;70.80;14.10;;;11.50;99.90;;;;;;5042547;28;20185;-83
2022/09/17 02:10:55;;;;;;;69.38;13.57;;;11.50;99.90;;;;;;5041300;28;20609;-83
2022/09/17 02:13:48;;;;;;;73.03;13.40;;;11.50;99.90;;;;;;5041781;28;20161;-83
2022/09/17 02:16:25;;;;;;;73.55;14.77;;;11.50;99.90;;;;;;5036954;28;20187;-83
2022/09/17 02:19:08;;;;;;;73.80;15.18;;;11.50;99.90;;;;;;5041454;28;20194;-83
2022/09/17 02:21:51;;;;;;;71.88;17.98;;;11.40;99.90;;;;;;5041178;28;20160;-83
2022/09/17 02:24:36;;;;;;;73.95;17.10;;;11.50;99.90;;;;;;5022843;28;20177;-83
2022/09/17 02:27:33;;;;;;;82.05;21.75;;;11.50;99.90;;;;;;5023185;28;20254;-83
2022/09/17 02:29:59;;;;;;;75.85;21.15;;;11.40;99.90;;;;;;5041632;28;20157;-83
2022/09/17 02:32:25;;;;;;;77.70;22.30;;;11.40;99.90;;;;;;5040919;28;20639;-83
2022/09/17 02:34:52;;;;;;;70.37;16.27;;;11.40;99.90;;;;;;5023630;28;20256;-83
2022/09/17 02:37:18;;;;;;;74.28;20.23;;;11.50;99.90;;;;;;5041134;28;20257;-83
2022/09/17 02:39:43;;;;;;;81.75;21.55;;;11.40;99.90;;;;;;5040549;28;20168;-83
2022/09/17 02:42:53;;;;;;;72.87;21.87;;;11.50;99.90;;;;;;5040949;28;20169;-83
2022/09/17 02:45:41;;;;;;;73.70;17.42;;;11.60;99.90;;;;;;4959302;29;20176;-83
2022/09/17 02:48:06;;;;;;;76.63;16.58;;;11.50;99.90;;;;;;4958807;28;20222;-83
2022/09/17 02:50:41;;;;;;;76.10;25.13;;;11.60;99.90;;;;;;5000186;28;20173;-84
2022/09/17 02:53:06;;;;;;;77.97;19.25;;;11.50;99.90;;;;;;5041210;28;20175;-83
2022/09/17 02:55:58;;;;;;;75.70;27.80;;;11.50;99.90;;;;;;5040523;28;20246;-83
2022/09/17 02:58:31;;;;;;;75.95;24.20;;;11.50;99.90;;;;;;4996299;28;20201;-83
2022/09/17 03:01:02;;;;;;;72.15;16.77;;;11.50;99.90;;;;;;5022130;28;20169;-83
2022/09/17 03:03:36;;;;;;;75.15;16.42;;;11.60;99.90;;;;;;5041745;28;20185;-83
2022/09/17 03:06:03;;;;;;;73.78;16.45;;;11.60;99.90;;;;;;5041417;28;20263;-83
2022/09/17 03:08:34;;;;;;;71.38;14.38;;;11.60;99.90;;;;;;5041380;28;20177;-83
2022/09/17 03:11:00;;;;;;;75.10;14.77;;;11.60;99.90;;;;;;5041323;28;20153;-83
2022/09/17 03:13:25;;;;;;;75.13;17.88;;;11.60;99.90;;;;;;5042041;28;20162;-83
2022/09/17 03:15:51;;;;;;;71.43;14.00;;;11.50;99.90;;;;;;5042079;28;20540;-83
2022/09/17 03:18:16;;;;;;;72.30;12.20;;;11.50;99.90;;;;;;5040903;28;20192;-84
2022/09/17 03:20:42;;;;;;;71.37;12.90;;;11.60;99.90;;;;;;5040990;28;20177;-83
2022/09/17 03:23:08;;;;;;;76.10;17.63;;;11.60;99.90;;;;;;5023320;28;20169;-83
2022/09/17 03:25:34;;;;;;;71.47;16.03;;;11.50;99.90;;;;;;5040703;28;20223;-83
2022/09/17 03:27:59;;;;;;;71.57;14.70;;;11.50;99.90;;;;;;5040686;28;20189;-83
2022/09/17 03:30:25;;;;;;;70.43;12.80;;;11.60;99.90;;;;;;5041094;28;20424;-83
2022/09/17 03:32:51;;;;;;;70.27;12.87;;;11.60;99.90;;;;;;5042116;28;20173;-84
2022/09/17 03:35:16;;;;;;;69.97;11.70;;;11.70;99.90;;;;;;5040762;28;20159;-83
2022/09/17 03:37:42;;;;;;;73.77;11.70;;;11.60;99.90;;;;;;5026637;28;20185;-83
2022/09/17 03:40:08;;;;;;;72.83;10.87;;;11.70;99.90;;;;;;5026735;28;20412;-83
2022/09/17 03:42:35;;;;;;;70.60;11.43;;;11.60;99.90;;;;;;5044259;28;20498;-83
2022/09/17 03:45:00;;;;;;;72.50;11.70;;;11.70;99.90;;;;;;5025668;28;20165;-84
2022/09/17 03:47:26;;;;;;;74.07;12.50;;;11.60;99.90;;;;;;5041264;28;20582;-83
2022/09/17 03:49:52;;;;;;;68.97;10.10;;;11.60;99.90;;;;;;5025656;28;20300;-84
2022/09/17 03:52:17;;;;;;;75.23;13.20;;;11.60;99.90;;;;;;5043816;28;20627;-83
2022/09/17 03:54:43;;;;;;;74.60;12.57;;;11.60;99.90;;;;;;5044659;28;20219;-83
2022/09/17 03:57:09;;;;;;;69.07;15.57;;;11.50;99.90;;;;;;5026359;28;20204;-83
2022/09/17 03:59:34;;;;;;;71.43;14.97;;;11.50;99.90;;;;;;5042736;28;20252;-83
2022/09/17 04:02:00;;;;;;;70.07;15.97;;;11.50;99.90;;;;;;5042693;28;20285;-83
2022/09/17 04:04:26;;;;;;;80.73;16.73;;;11.60;99.90;;;;;;5043451;28;20406;-84
2022/09/17 04:06:52;;;;;;;74.43;16.40;;;11.60;99.90;;;;;;5042460;28;20197;-83
2022/09/17 04:09:17;;;;;;;71.73;16.23;;;11.60;99.90;;;;;;5043481;28;20172;-84
2022/09/17 04:11:43;;;;;;;78.13;24.03;;;11.70;99.90;;;;;;5025732;28;20517;-84
2022/09/17 04:14:09;;;;;;;81.17;15.80;;;11.70;99.90;;;;;;5043951;28;20166;-83
2022/09/17 04:16:34;;;;;;;78.73;17.60;;;11.70;99.90;;;;;;5043159;28;20671;-84
2022/09/17 04:19:00;;;;;;;76.03;16.77;;;11.60;99.90;;;;;;5025151;28;20185;-84
2022/09/17 04:21:26;;;;;;;71.03;13.80;;;11.60;99.90;;;;;;5041860;28;20200;-83
2022/09/17 04:23:51;;;;;;;76.97;14.43;;;11.60;99.90;;;;;;5041235;28;20698;-83
2022/09/17 04:26:17;;;;;;;76.23;15.00;;;11.60;99.90;;;;;;5042791;28;20189;-83
2022/09/17 04:28:43;;;;;;;80.53;14.30;;;11.60;99.90;;;;;;5024673;28;20196;-84
2022/09/17 04:31:08;;;;;;;75.50;14.77;;;11.60;99.90;;;;;;5042813;28;20252;-84
2022/09/17 04:33:34;;;;;;;71.47;12.53;;;11.50;99.90;;;;;;5023211;28;20180;-84
2022/09/17 04:36:00;;;;;;;69.57;13.33;;;11.60;99.90;;;;;;5041528;28;20165;-84
2022/09/17 04:38:25;;;;;;;72.90;11.60;;;11.50;99.90;;;;;;5041532;28;20489;-84
2022/09/17 04:40:56;;;;;;;70.77;11.57;;;11.50;99.90;;;;;;5024495;28;20252;-83
2022/09/17 04:43:22;;;;;;;73.50;12.55;;;11.60;99.90;;;;;;5023267;28;20218;-83
2022/09/17 04:45:49;;;;;;;80.90;14.63;;;11.50;99.90;;;;;;5041334;28;20724;-83
2022/09/17 04:48:15;;;;;;;72.78;16.27;;;11.50;99.90;;;;;;5042371;28;20458;-84
2022/09/17 04:50:41;;;;;;;74.17;15.23;;;11.40;99.90;;;;;;5042191;28;20161;-83
2022/09/17 04:53:06;;;;;;;78.70;19.33;;;11.40;99.90;;;;;;5042076;28;20782;-83
2022/09/17 04:55:32;;;;;;;69.97;16.63;;;11.40;99.90;;;;;;5023030;28;20663;-83
2022/09/17 04:57:58;;;;;;;75.70;15.27;;;11.40;99.90;;;;;;5041025;28;20183;-83
2022/09/17 05:00:24;;;;;;;71.20;17.17;;;11.40;99.90;;;;;;5041795;28;20200;-84
2022/09/17 05:02:51;;;;;;;71.63;15.67;;;11.40;99.90;;;;;;5041059;28;20172;-83
2022/09/17 05:05:18;;;;;;;77.88;18.73;;;11.40;99.90;;;;;;5041745;28;20521;-83
2022/09/17 05:07:44;;;;;;;72.85;15.73;;;11.50;99.90;;;;;;5041098;28;20262;-83
2022/09/17 05:10:12;;;;;;;73.40;14.10;;;11.50;99.90;;;;;;5022856;28;20193;-83
2022/09/17 05:12:38;;;;;;;76.70;19.70;;;11.50;99.90;;;;;;5040095;28;20169;-83
2022/09/17 05:15:04;;;;;;;72.60;14.50;;;11.50;99.90;;;;;;5023531;28;20731;-83
2022/09/17 05:17:30;;;;;;;75.78;15.95;;;11.50;99.90;;;;;;5040680;28;20181;-83
2022/09/17 05:19:56;;;;;;;75.23;17.97;;;11.50;99.90;;;;;;5023116;28;20746;-84
2022/09/17 05:22:21;;;;;;;75.63;17.40;;;11.50;99.90;;;;;;5041345;28;20252;-83
2022/09/17 05:24:47;;;;;;;71.37;17.43;;;11.50;99.90;;;;;;5039960;28;20167;-83
2022/09/17 05:27:13;;;;;;;87.00;16.13;;;11.50;99.90;;;;;;5041253;28;20803;-83
2022/09/17 05:29:38;;;;;;;71.70;13.27;;;11.60;99.90;;;;;;5040421;28;20169;-83
2022/09/17 05:32:04;;;;;;;71.60;13.90;;;11.50;99.90;;;;;;5041163;28;20403;-84
2022/09/17 05:34:30;;;;;;;76.83;12.90;;;11.50;99.90;;;;;;5039449;28;20170;-83
2022/09/17 05:36:56;;;;;;;74.70;12.73;;;11.50;99.90;;;;;;5040585;28;20405;-83
2022/09/17 05:39:24;;;;;;;75.90;12.67;;;11.50;99.90;;;;;;5040682;28;20172;-83
2022/09/17 05:41:53;;;;;;;75.85;11.90;;;11.50;99.90;;;;;;5039332;28;20165;-82
2022/09/17 05:44:22;;;;;;;69.30;12.57;;;11.60;99.90;;;;;;5038943;28;20202;-83
2022/09/17 05:46:48;;;;;;;77.32;11.82;;;11.60;99.90;;;;;;5020672;28;20208;-83
2022/09/17 05:49:14;;;;;;;77.70;14.90;;;11.60;99.90;;;;;;5039158;28;20165;-83
2022/09/17 05:51:40;;;;;;;71.00;11.80;;;11.60;99.90;;;;;;5039579;28;20165;-83
2022/09/17 05:54:06;;;;;;;70.78;14.68;;;11.70;99.90;;;;;;5038742;28;20193;-83
2022/09/17 05:56:32;;;;;;;72.38;12.25;;;11.70;99.90;;;;;;5039916;28;20235;-83
2022/09/17 05:58:58;;;;;;;70.27;10.87;;;11.80;99.90;;;;;;5038328;28;20189;-83
2022/09/17 06:01:24;;;;;;;72.23;13.40;;;11.80;99.90;;;;;;5021985;28;20423;-83
2022/09/17 06:03:50;;;;;;;78.40;13.90;;;11.90;99.90;;;;;;5021713;28;20170;-83
2022/09/17 06:06:16;;;;;;;71.30;11.10;;;12.00;99.90;;;;;;5020601;28;20241;-83
2022/09/17 06:08:41;;;;;;;73.33;12.90;;;12.00;99.90;;;;;;5021551;28;20199;-83
2022/09/17 06:11:08;;;;;;;74.03;10.27;;;12.00;99.90;;;;;;5021434;28;20169;-83
2022/09/17 06:13:34;;;;;;;69.95;9.68;;;12.10;99.90;;;;;;5037855;28;20169;-82
2022/09/17 06:16:01;;;;;;;75.43;10.98;;;12.20;99.90;;;;;;5039315;28;20161;-83
2022/09/17 06:18:30;;;;;;;71.75;8.93;;;12.30;99.90;;;;;;5038176;28;20272;-83
2022/09/17 06:20:59;;;;;;;71.88;13.80;;;12.30;99.90;;;;;;5037608;28;20177;-83
2022/09/17 06:23:25;;;;;;;69.00;8.43;;;12.40;99.90;;;;;;5038534;28;20171;-82
2022/09/17 06:25:58;;;;;;;69.57;6.50;;;12.40;99.90;;;;;;5038701;28;20212;-82
2022/09/17 06:28:25;;;;;;;68.32;7.22;;;12.50;99.90;;;;;;5039089;28;20443;-83
2022/09/17 06:30:54;;;;;;;70.50;8.43;;;12.60;99.90;;;;;;5038534;28;20173;-84
2022/09/17 06:33:21;;;;;;;70.95;9.85;;;12.60;99.90;;;;;;5038932;28;20150;-83
2022/09/17 06:35:47;;;;;;;77.82;12.02;;;12.60;99.90;;;;;;5021028;28;20161;-83
2022/09/17 06:38:13;;;;;;;73.57;14.53;;;12.70;99.90;;;;;;5019258;28;20687;-83
2022/09/17 06:40:39;;;;;;;71.40;21.40;;;12.60;99.90;;;;;;5037206;28;20419;-83
2022/09/17 06:43:05;;;;;;;76.80;33.40;;;12.60;99.90;;;;;;5019210;28;20165;-82
2022/09/17 06:45:30;;;;;;;77.30;37.13;;;12.60;99.90;;;;;;5019229;28;20169;-83
2022/09/17 06:47:56;;;;;;;80.73;41.23;;;12.70;99.90;;;;;;5019669;28;20204;-83
2022/09/17 06:50:22;;;;;;;82.47;39.17;;;12.60;99.90;;;;;;5037280;28;20185;-83
2022/09/17 06:52:52;;;;;;;78.97;37.30;;;12.60;99.90;;;;;;5038172;28;20193;-83
2022/09/17 06:55:19;;;;;;;76.22;31.25;;;12.60;99.90;;;;;;5038168;28;20225;-83
2022/09/17 06:57:45;;;;;;;83.90;42.35;;;12.60;99.90;;;;;;5021327;28;20189;-83
2022/09/17 07:00:13;;;;;;;82.10;40.28;;;12.60;99.90;;;;;;5038458;28;20584;-83
2022/09/17 07:02:39;;;;;;;81.88;35.67;;;12.60;99.90;;;;;;5019338;28;20172;-83
2022/09/17 07:05:05;;;;;;;84.97;36.13;;;12.60;99.90;;;;;;5037020;28;20197;-83
2022/09/17 07:07:31;;;;;;;92.97;48.80;;;12.60;99.90;;;;;;5019610;28;20557;-82
2022/09/17 07:09:56;;;;;;;82.67;39.87;;;12.50;99.90;;;;;;5039271;28;20244;-82
2022/09/17 07:12:22;;;;;;;82.70;47.30;;;12.40;99.90;;;;;;5022893;28;20165;-83
2022/09/17 07:14:48;;;;;;;85.03;48.80;;;12.40;99.90;;;;;;5041483;28;20157;-84
2022/09/17 07:17:14;;;;;;;81.27;46.23;;;12.40;99.90;;;;;;5023367;28;20267;-83
2022/09/17 07:19:39;;;;;;;88.90;56.23;;;12.40;99.90;;;;;;5041101;28;20175;-83
2022/09/17 07:22:05;;;;;;;79.00;41.07;;;12.50;99.90;;;;;;5040837;28;20399;-83
2022/09/17 07:24:32;;;;;;;82.07;46.17;;;12.50;99.90;;;;;;5041193;28;20166;-83
2022/09/17 07:26:57;;;;;;;81.13;45.45;;;12.60;99.90;;;;;;5040934;28;20231;-82
2022/09/17 07:29:26;;;;;;;81.00;42.10;;;12.60;99.90;;;;;;5023349;28;20165;-83
2022/09/17 07:31:54;;;;;;;80.93;40.95;;;12.60;99.90;;;;;;5041154;28;20164;-83
2022/09/17 07:34:20;;;;;;;82.30;48.27;;;12.60;99.90;;;;;;5023164;28;20169;-83
2022/09/17 07:36:45;;;;;;;83.27;44.30;;;12.60;99.90;;;;;;5040676;28;20400;-83
2022/09/17 07:39:14;;;;;;;79.33;41.77;;;12.60;99.90;;;;;;5040538;28;20439;-83
2022/09/17 07:41:40;;;;;;;77.85;32.17;;;12.60;99.90;;;;;;5041826;28;20242;-83
2022/09/17 07:44:06;;;;;;;83.13;42.60;;;12.50;99.90;;;;;;5022835;28;20165;-83
2022/09/17 07:46:32;;;;;;;85.15;46.30;;;12.60;99.90;;;;;;5022757;28;20255;-83
2022/09/17 07:48:58;;;;;;;81.43;46.93;;;12.60;99.90;;;;;;5040605;28;20188;-84
2022/09/17 07:51:27;;;;;;;82.07;49.90;;;12.70;99.90;;;;;;5040366;28;20477;-83
2022/09/17 07:53:54;;;;;;;88.03;37.60;;;12.90;99.90;;;;;;5040361;28;20220;-83
2022/09/17 07:56:20;;;;;;;83.03;44.80;;;13.00;99.90;;;;;;5039864;28;20192;-83
2022/09/17 07:58:46;;;;;;;75.82;25.90;;;13.00;99.90;;;;;;5039642;28;20611;-81
2022/09/17 08:01:15;;;;;;;76.20;21.87;;;13.00;99.90;;;;;;5039416;28;20166;-83
2022/09/17 08:03:42;;;;;;;74.90;23.38;;;13.00;99.90;;;;;;5021252;28;20172;-82
2022/09/17 08:06:10;;;;;;;84.10;30.05;;;13.00;99.90;;;;;;5038899;28;20584;-82
2022/09/17 08:08:37;;;;;;;77.20;23.98;;;13.20;99.90;;;;;;5039586;28;20692;-84
2022/09/17 08:11:04;;;;;;;79.50;21.63;;;13.30;99.90;;;;;;5021803;28;20165;-83
2022/09/17 08:13:30;;;;;;;75.47;20.65;;;13.30;99.90;;;;;;5039510;28;20767;-83
2022/09/17 08:16:06;;;;;;;71.07;20.27;;;13.40;99.90;;;;;;5039712;28;20185;-82
2022/09/17 08:18:32;;;;;;;79.70;21.03;;;13.50;99.90;;;;;;5039208;28;20196;-83
2022/09/17 08:20:59;;;;;;;86.50;26.10;;;13.60;99.90;;;;;;5021164;28;20415;-83
2022/09/17 08:23:26;;;;;;;74.73;14.03;;;13.70;99.90;;;;;;5021823;28;20412;-83
2022/09/17 08:25:54;;;;;;;86.27;30.27;;;13.70;99.90;;;;;;5039694;28;20411;-83
2022/09/17 08:28:20;;;;;;;71.43;12.23;;;13.70;99.90;;;;;;5039791;28;20495;-83
2022/09/17 08:30:47;;;;;;;72.80;10.33;;;13.70;99.90;;;;;;5039974;28;20810;-83
2022/09/17 08:33:13;;;;;;;68.20;8.30;;;13.70;99.90;;;;;;5039512;28;20887;-83
2022/09/17 08:35:39;;;;;;;68.30;6.82;;;13.70;99.90;;;;;;5039849;28;20934;-84
2022/09/17 08:38:06;;;;;;;69.40;8.20;;;13.80;99.90;;;;;;5039914;28;20177;-83
2022/09/17 08:40:41;;;;;;;72.15;7.40;;;13.70;99.90;;;;;;5039969;28;20403;-83
2022/09/17 08:43:14;;;;;;;69.47;7.23;;;13.70;99.90;;;;;;5022515;28;20164;-83
2022/09/17 08:45:40;;;;;;;69.17;7.33;;;13.70;99.90;;;;;;5040187;28;20466;-83
2022/09/17 08:48:12;;;;;;;70.57;9.10;;;13.70;99.90;;;;;;5021827;28;21010;-83
2022/09/17 08:50:41;;;;;;;70.40;6.67;;;13.80;99.90;;;;;;5039971;28;20947;-84
2022/09/17 08:53:29;;;;;;;73.83;9.60;;;13.80;99.90;;;;;;5038673;28;20399;-83
2022/09/17 08:56:10;;;;;;;67.97;7.57;;;14.00;99.90;;;;;;5039889;28;20389;-83
2022/09/17 08:58:56;;;;;;;69.93;8.07;;;14.30;99.90;;;;;;5039253;28;20419;-83
2022/09/17 09:01:38;;;;;;;73.72;7.65;;;14.50;99.90;;;;;;5022381;28;20457;-84
2022/09/17 09:04:28;;;;;;;72.00;10.60;;;14.50;94.10;;;;;;5040243;28;20313;-84
2022/09/17 09:07:06;;;;;;;72.10;16.07;;;14.50;92.80;;;;;;5039926;28;20424;-84
2022/09/17 09:09:38;;;;;;;69.57;9.57;;;14.60;97.10;;;;;;5040989;28;20388;-84
2022/09/17 09:12:25;;;;;;;74.60;9.53;;;14.60;94.10;;;;;;5023435;28;20426;-85
2022/09/17 09:15:01;;;;;;;70.13;7.60;;;14.70;94.70;;;;;;5040969;28;20763;-84
2022/09/17 09:17:42;;;;;;;74.27;8.93;;;14.70;91.00;;;;;;5021915;28;20435;-83
2022/09/17 09:20:31;;;;;;;71.80;7.13;;;14.80;93.20;;;;;;5039728;28;20411;-83
2022/09/17 09:23:21;;;;;;;71.50;4.50;;;14.90;91.70;;;;;;5039165;28;20836;-84
2022/09/17 09:26:10;;;;;;;68.40;5.83;;;14.90;83.50;;;;;;5024558;28;20173;-84
2022/09/17 09:28:59;;;;;;;68.97;4.37;;;14.90;83.20;;;;;;5039992;28;20454;-84
2022/09/17 09:31:28;;;;;;;68.03;4.43;;;14.90;82.00;;;;;;4992786;28;20778;-84
2022/09/17 09:33:55;;;;;;;72.03;4.77;;;14.90;88.20;;;;;;5038334;28;20485;-84
2022/09/17 09:36:20;;;;;;;71.80;5.30;;;15.00;86.00;;;;;;5038962;28;20407;-84
2022/09/17 09:38:55;;;;;;;70.47;4.30;;;15.20;85.90;;;;;;5039234;28;20761;-83
2022/09/17 09:41:36;;;;;;;68.33;3.70;;;15.30;78.20;;;;;;5039773;28;20145;-83
2022/09/17 09:44:06;;;;;;;69.83;4.10;;;15.30;80.10;;;;;;5038649;28;20386;-83
2022/09/17 09:47:11;;;;;;;65.40;3.17;;;15.30;75.50;;;;;;5020954;28;20456;-84
2022/09/17 09:49:58;;;;;;;67.60;4.00;;;15.10;68.90;;;;;;5020616;28;20447;-83
2022/09/17 09:52:39;;;;;;;69.03;4.83;;;14.90;70.70;;;;;;5021441;28;20487;-84
2022/09/17 09:55:25;;;;;;;70.37;4.20;;;15.00;68.70;;;;;;5021640;28;20531;-83
2022/09/17 09:58:09;;;;;;;67.93;6.30;;;15.10;64.70;;;;;;5020782;28;20494;-84
2022/09/17 10:00:39;;;;;;;68.20;5.30;;;15.20;48.70;;;;;;5038822;28;20400;-82
2022/09/17 10:03:22;;;;;;;67.37;6.93;;;15.50;50.70;;;;;;5019328;28;20408;-83
2022/09/17 10:06:06;;;;;;;68.87;5.17;;;15.80;47.00;;;;;;5038864;28;20432;-84
2022/09/17 10:08:54;;;;;;;71.90;5.50;;;16.00;46.30;;;;;;5019256;28;20512;-82
2022/09/17 10:11:28;;;;;;;71.83;6.50;;;16.20;47.80;;;;;;5009023;28;20975;-82
2022/09/17 10:14:13;;;;;;;75.10;5.03;;;16.20;36.10;;;;;;5037261;28;20390;-82
2022/09/17 10:16:38;;;;;;;67.50;3.90;;;16.10;25.90;;;;;;5037422;28;20394;-83
2022/09/17 10:19:07;;;;;;;69.80;4.30;;;16.10;13.00;;;;;;5036390;28;20434;-83
2022/09/17 10:21:38;;;;;;;76.27;5.13;;;16.20;13.80;;;;;;5019535;28;20173;-83
2022/09/17 10:24:28;;;;;;;67.00;3.53;;;16.50;21.30;;;;;;5038152;28;20412;-84
2022/09/17 10:27:14;;;;;;;66.67;4.40;;;16.80;17.20;;;;;;5021465;28;20481;-83
2022/09/17 10:29:50;;;;;;;70.20;4.30;;;16.80;5.10;;;;;;5039964;28;20394;-84
2022/09/17 10:32:18;;;;;;;69.57;5.70;;;16.80;8.20;;;;;;5039226;28;20417;-83
2022/09/17 10:35:14;;;;;;;69.30;5.50;;;16.70;1.00;;;;;;5038687;28;20414;-83
2022/09/17 10:37:51;;;;;;;68.07;4.40;;;16.30;1.00;;;;;;5038194;28;20425;-84
2022/09/17 10:40:17;;;;;;;69.17;4.60;;;16.10;11.40;;;;;;5038852;28;20433;-84
2022/09/17 10:42:46;;;;;;;69.20;4.00;;;16.30;19.40;;;;;;5040500;28;20433;-84
2022/09/17 10:45:30;;;;;;;65.93;3.70;;;16.50;25.20;;;;;;5041537;28;20409;-84
2022/09/17 10:47:58;;;;;;;71.67;4.27;;;16.60;23.00;;;;;;5122209;22;20936;-82
2022/09/17 10:50:30;;;;;;;65.57;3.67;;;16.70;15.80;;;;;;5042468;28;20490;-82
2022/09/17 10:53:00;;;;;;;68.67;5.30;;;17.00;14.90;;;;;;5043458;28;20398;-82
2022/09/17 10:55:49;;;;;;;69.07;4.53;;;17.10;5.50;;;;;;5043890;28;20387;-82
2022/09/17 10:58:41;;;;;;;68.20;3.80;;;17.00;17.30;;;;;;5025978;28;20967;-83
2022/09/17 11:01:22;;;;;;;67.10;4.37;;;16.80;20.80;;;;;;5026486;28;20399;-82
2022/09/17 11:04:26;;;;;;;67.57;3.83;;;16.50;24.20;;;;;;5043400;28;20380;-85
2022/09/17 11:07:21;;;;;;;68.57;3.93;;;16.50;28.30;;;;;;5014631;28;20467;-83
2022/09/17 11:10:07;;;;;;;66.67;3.60;;;16.70;23.20;;;;;;5043129;28;20387;-84
2022/09/17 11:12:49;;;;;;;67.57;6.07;;;17.00;23.40;;;;;;5025855;28;20471;-84
2022/09/17 11:15:24;;;;;;;67.90;5.13;;;17.00;1.00;;;;;;5024690;28;20406;-83
2022/09/17 11:18:01;;;;;;;68.20;6.67;;;17.00;1.00;;;;;;5042250;28;20924;-84
2022/09/17 11:20:46;;;;;;;70.20;7.50;;;17.30;1.00;;;;;;5051263;28;20518;-85
2022/09/17 11:23:39;;;;;;;69.53;4.50;;;17.50;1.00;;;;;;5044254;28;20394;-84
2022/09/17 11:26:24;;;;;;;69.10;4.90;;;17.50;1.00;;;;;;5025022;28;20432;-84
2022/09/17 11:29:14;;;;;;;70.43;3.73;;;17.70;1.00;;;;;;5042793;28;20446;-84
2022/09/17 11:31:59;;;;;;;67.40;3.97;;;17.80;1.00;;;;;;5028005;28;20404;-85
2022/09/17 11:34:34;;;;;;;66.50;3.50;;;17.90;1.00;;;;;;5027320;28;20398;-84
2022/09/17 11:37:19;;;;;;;65.67;2.90;;;17.90;1.00;;;;;;5028103;28;20411;-84
2022/09/17 11:40:12;;;;;;;67.40;3.70;;;17.70;1.00;;;;;;5044394;28;20948;-84
2022/09/17 11:42:48;;;;;;;70.17;5.40;;;17.30;1.00;;;;;;5043846;28;20895;-83
2022/09/17 11:45:17;;;;;;;69.10;4.70;;;16.90;3.00;;;;;;5046142;28;20389;-84
2022/09/17 11:48:12;;;;;;;66.80;3.60;;;16.50;48.10;;;;;;5042024;28;20493;-83
2022/09/17 11:50:46;;;;;;;72.67;3.37;;;15.70;90.00;;;;;;5025836;28;20418;-83
2022/09/17 11:53:19;;;;;;;69.20;3.57;;;15.10;94.50;;;;;;5044408;28;20381;-84
2022/09/17 11:55:50;;;;;;;66.90;5.67;;;14.70;99.90;;;;;;5025342;28;20416;-83
2022/09/17 11:58:43;;;;;;;65.13;5.07;;;14.60;99.90;;;;;;5040571;28;20426;-83
2022/09/17 12:01:15;;;;;;;66.90;6.23;;;14.50;99.90;;;;;;5042057;28;20751;-83
2022/09/17 12:04:02;;;;;;;67.63;9.77;;;14.50;99.90;;;;;;5022896;28;20404;-83
2022/09/17 12:06:43;;;;;;;69.07;7.33;;;14.70;99.90;;;;;;5039617;28;20439;-83
2022/09/17 12:09:22;;;;;;;66.27;6.33;;;14.90;99.90;;;;;;5040299;28;20391;-83
2022/09/17 12:12:05;;;;;;;68.67;8.10;;;15.30;99.90;;;;;;5023180;28;20979;-83
2022/09/17 12:17:01;;;;;;;69.10;5.33;;;15.80;99.90;;;;;;4999699;28;20470;-84
2022/09/17 12:19:33;;;;;;;70.33;4.40;;;16.00;99.30;;;;;;5002356;28;20406;-83
2022/09/17 12:22:04;;;;;;;73.77;4.27;;;15.90;98.10;;;;;;5002300;28;20482;-84
2022/09/17 12:24:33;;;;;;;67.07;5.07;;;15.60;99.90;;;;;;4984915;28;20421;-83
2022/09/17 12:27:15;;;;;;;67.53;5.07;;;15.50;98.20;;;;;;5002010;28;20454;-83
2022/09/17 12:29:59;;;;;;;65.83;6.00;;;15.50;99.90;;;;;;4985028;28;20442;-85
2022/09/17 12:32:49;;;;;;;67.27;4.73;;;15.60;99.90;;;;;;5002540;28;20437;-85
2022/09/17 12:35:34;;;;;;;67.00;4.90;;;15.60;99.90;;;;;;4985683;28;20419;-85
2022/09/17 12:38:19;;;;;;;66.67;4.70;;;15.60;99.60;;;;;;5002754;28;20518;-84
2022/09/17 12:41:10;;;;;;;65.50;4.17;;;15.40;97.80;;;;;;5002329;28;20417;-86
2022/09/17 12:44:16;;;;;;;66.10;3.93;;;15.20;99.40;;;;;;5002125;28;20429;-86
2022/09/17 12:47:00;;;;;;;66.87;4.33;;;15.10;99.90;;;;;;5001308;28;21065;-84
2022/09/17 12:49:48;;;;;;;69.53;4.77;;;15.10;99.90;;;;;;5002118;28;20405;-84
2022/09/17 12:52:32;;;;;;;69.30;5.37;;;15.20;99.90;;;;;;4984789;28;20440;-86
2022/09/17 12:55:26;;;;;;;65.90;5.07;;;15.50;99.90;;;;;;5004496;28;20377;-86
2022/09/17 12:58:17;;;;;;;65.47;6.10;;;15.90;99.90;;;;;;4949842;28;20426;-86
2022/09/17 13:01:12;;;;;;;67.17;3.33;;;16.30;99.90;;;;;;4984802;28;20396;-85
2022/09/17 13:03:44;;;;;;;68.37;4.20;;;16.70;86.60;;;;;;4967646;28;20407;-86